Time;durP1;ratioP1;P1;durP2;ratioP2;P2;SDS_P1;SDS_P2;PMS_P1;PMS_P2;Temp;Humidity;BMP_temperature;BMP_pressure;BME280_temperature;BME280_humidity;BME280_pressure;Samples;Min_cycle;Max_cycle;Signal;HPM_P1;HPM_P2
2024/02/25 00:01:19;;;;;;;2.60;2.40;;;5.50;99.90;;;;;;5070262;28;20451;-80
2024/02/25 00:03:49;;;;;;;2.00;1.87;;;5.50;99.90;;;;;;5069112;28;20514;-81
2024/02/25 00:06:17;;;;;;;2.07;1.87;;;5.50;99.90;;;;;;5072604;28;20457;-81
2024/02/25 00:08:45;;;;;;;2.10;2.00;;;5.50;99.90;;;;;;5071193;28;20444;-82
2024/02/25 00:11:13;;;;;;;2.50;2.30;;;5.60;99.90;;;;;;5072999;28;20455;-82
2024/02/25 00:13:42;;;;;;;2.30;2.20;;;5.50;99.90;;;;;;5072047;28;20533;-82
2024/02/25 00:16:10;;;;;;;2.50;2.40;;;5.30;99.90;;;;;;5072121;28;20470;-82
2024/02/25 00:18:38;;;;;;;2.80;2.60;;;5.20;99.90;;;;;;5071368;28;20537;-82
2024/02/25 00:21:08;;;;;;;3.07;2.87;;;5.20;99.90;;;;;;5069841;28;20450;-82
2024/02/25 00:23:37;;;;;;;3.53;3.23;;;5.20;99.90;;;;;;5068981;28;20474;-80
2024/02/25 00:26:05;;;;;;;2.83;2.63;;;5.30;99.90;;;;;;5071328;28;20448;-81
2024/02/25 00:28:33;;;;;;;2.77;2.43;;;5.20;99.90;;;;;;5067623;28;20466;-82
2024/02/25 00:31:01;;;;;;;3.00;2.80;;;5.20;99.90;;;;;;5068299;28;21021;-81
2024/02/25 00:33:29;;;;;;;3.37;2.53;;;5.20;99.90;;;;;;5070849;28;20475;-81
2024/02/25 00:35:58;;;;;;;3.00;2.80;;;5.20;99.90;;;;;;5065858;28;20493;-82
2024/02/25 00:38:28;;;;;;;2.07;1.97;;;5.30;99.90;;;;;;5070482;28;20458;-83
2024/02/25 00:40:56;;;;;;;3.63;2.50;;;5.20;99.90;;;;;;5072891;28;20450;-82
2024/02/25 00:43:29;;;;;;;2.70;2.13;;;5.20;99.90;;;;;;5073440;28;20474;-82
2024/02/25 00:45:57;;;;;;;2.13;1.80;;;5.20;99.90;;;;;;5070582;28;20942;-83
2024/02/25 00:48:25;;;;;;;2.60;2.40;;;5.30;99.90;;;;;;5071882;28;20473;-83
2024/02/25 00:50:54;;;;;;;2.23;2.00;;;5.40;99.90;;;;;;5072572;28;20445;-80
2024/02/25 00:53:22;;;;;;;2.27;1.90;;;5.40;99.90;;;;;;5071644;28;20485;-81
2024/02/25 00:55:51;;;;;;;2.17;2.07;;;5.50;99.90;;;;;;5071452;28;20474;-82
2024/02/25 00:58:20;;;;;;;2.43;2.23;;;5.50;99.90;;;;;;5069424;28;20807;-82
2024/02/25 01:00:50;;;;;;;2.03;1.90;;;5.40;99.90;;;;;;5074084;28;20443;-81
2024/02/25 01:03:18;;;;;;;2.00;1.90;;;5.30;99.90;;;;;;5073052;28;21333;-83
2024/02/25 01:05:47;;;;;;;2.10;2.00;;;5.20;99.90;;;;;;5072079;28;20459;-80
2024/02/25 01:08:15;;;;;;;2.33;2.13;;;5.20;99.90;;;;;;5071532;28;20453;-81
2024/02/25 01:10:43;;;;;;;2.10;2.00;;;5.20;99.90;;;;;;5070263;28;20454;-82
2024/02/25 01:13:14;;;;;;;4.53;2.13;;;5.30;99.90;;;;;;5074606;28;20459;-81
2024/02/25 01:15:42;;;;;;;2.40;2.03;;;5.40;99.90;;;;;;5071007;28;20489;-81
2024/02/25 01:18:11;;;;;;;1.70;1.60;;;5.30;99.90;;;;;;5071264;28;20862;-79
2024/02/25 01:20:39;;;;;;;1.93;1.83;;;5.20;99.90;;;;;;5072264;28;20443;-79
2024/02/25 01:23:07;;;;;;;2.00;1.90;;;5.20;99.90;;;;;;5067576;28;20474;-80
2024/02/25 01:25:35;;;;;;;2.20;1.93;;;5.10;99.90;;;;;;5068836;28;20446;-83
2024/02/25 01:28:04;;;;;;;2.07;1.97;;;5.00;99.90;;;;;;5068212;28;20461;-80
2024/02/25 01:30:34;;;;;;;3.53;2.30;;;4.80;99.90;;;;;;5072763;28;20451;-81
2024/02/25 01:33:02;;;;;;;2.07;1.93;;;4.80;99.90;;;;;;5070368;28;20451;-80
2024/02/25 01:35:30;;;;;;;2.20;2.10;;;4.90;99.90;;;;;;5073892;28;20986;-80
2024/02/25 01:37:58;;;;;;;2.87;2.10;;;5.00;99.90;;;;;;5071009;28;20451;-82
2024/02/25 01:40:26;;;;;;;2.63;2.43;;;5.10;99.90;;;;;;5069425;28;20453;-80
2024/02/25 01:43:10;;;;;;;2.50;2.30;;;5.10;99.90;;;;;;5069350;28;23182;-79
2024/02/25 01:45:40;;;;;;;2.37;2.17;;;5.20;99.90;;;;;;5072019;28;20477;-81
2024/02/25 01:48:09;;;;;;;2.20;2.10;;;5.20;99.90;;;;;;5068311;28;21010;-81
2024/02/25 01:50:38;;;;;;;2.00;1.90;;;5.20;99.90;;;;;;5073375;28;20466;-79
2024/02/25 01:53:08;;;;;;;2.27;2.17;;;5.30;99.90;;;;;;5070849;28;20507;-80
2024/02/25 01:55:36;;;;;;;2.40;2.10;;;5.20;99.90;;;;;;5067786;28;20975;-81
2024/02/25 01:58:07;;;;;;;2.27;2.17;;;5.20;99.90;;;;;;5072489;28;20478;-81
2024/02/25 02:00:37;;;;;;;2.10;2.00;;;5.10;99.90;;;;;;5072404;28;20504;-80
2024/02/25 02:03:08;;;;;;;1.90;1.80;;;5.10;99.90;;;;;;5072113;28;20576;-80
2024/02/25 02:05:37;;;;;;;2.50;2.40;;;5.10;99.90;;;;;;5073021;28;21110;-82
2024/02/25 02:08:06;;;;;;;3.63;1.87;;;4.90;99.90;;;;;;5067697;28;20431;-80
2024/02/25 02:10:34;;;;;;;2.23;2.13;;;4.80;99.90;;;;;;5068265;28;20826;-80
2024/02/25 02:13:05;;;;;;;2.43;1.97;;;4.90;99.90;;;;;;5084818;28;20471;-80
2024/02/25 02:15:33;;;;;;;2.37;2.17;;;4.80;99.90;;;;;;5067231;28;20470;-80
2024/02/25 02:18:03;;;;;;;1.87;1.77;;;4.90;99.90;;;;;;5066349;28;20504;-80
2024/02/25 02:20:33;;;;;;;1.87;1.77;;;4.80;99.90;;;;;;5066276;28;20458;-80
2024/02/25 02:23:03;;;;;;;1.90;1.80;;;4.80;99.90;;;;;;5067498;28;20466;-80
2024/02/25 02:25:31;;;;;;;2.07;1.97;;;4.70;99.90;;;;;;5065263;28;20498;-78
2024/02/25 02:27:59;;;;;;;1.90;1.80;;;4.70;99.90;;;;;;5065080;28;20455;-82
2024/02/25 02:30:27;;;;;;;2.67;2.47;;;4.90;99.90;;;;;;5069424;28;20205;-79
2024/02/25 02:32:56;;;;;;;2.00;1.90;;;5.00;99.90;;;;;;5067445;28;20220;-80
2024/02/25 02:35:24;;;;;;;1.90;1.80;;;5.00;99.90;;;;;;5068268;28;20822;-80
2024/02/25 02:37:52;;;;;;;2.27;2.17;;;5.10;99.90;;;;;;5065647;28;20524;-80
2024/02/25 02:40:22;;;;;;;2.40;2.30;;;4.90;99.90;;;;;;5066652;28;20492;-80
2024/02/25 02:42:52;;;;;;;2.07;1.97;;;5.00;99.90;;;;;;5065445;28;20473;-79
2024/02/25 02:45:20;;;;;;;1.80;1.70;;;5.00;99.90;;;;;;5065715;28;20454;-79
2024/02/25 02:47:48;;;;;;;2.43;2.23;;;4.90;99.90;;;;;;5067073;28;20461;-79
2024/02/25 02:50:17;;;;;;;2.00;1.90;;;4.90;99.90;;;;;;5065659;28;20973;-80
2024/02/25 02:52:45;;;;;;;3.40;1.90;;;4.90;99.90;;;;;;5065391;28;20477;-80
2024/02/25 02:55:13;;;;;;;1.80;1.70;;;4.90;99.90;;;;;;5068219;28;20451;-78
2024/02/25 02:57:43;;;;;;;2.10;2.00;;;4.90;99.90;;;;;;5066140;28;20228;-79
2024/02/25 03:00:12;;;;;;;2.40;1.80;;;5.00;99.90;;;;;;5066039;28;20442;-79
2024/02/25 03:02:40;;;;;;;1.90;1.80;;;5.10;99.90;;;;;;5064403;28;20508;-80
2024/02/25 03:05:09;;;;;;;2.10;1.53;;;5.20;99.90;;;;;;5072387;28;20550;-79
2024/02/25 03:07:37;;;;;;;2.43;1.90;;;5.40;99.90;;;;;;5073623;28;20442;-78
2024/02/25 03:10:07;;;;;;;1.77;1.67;;;5.50;99.90;;;;;;5069115;28;20457;-80
2024/02/25 03:12:35;;;;;;;1.70;1.60;;;5.60;99.90;;;;;;5066651;28;20475;-79
2024/02/25 03:15:05;;;;;;;1.40;1.40;;;5.50;99.90;;;;;;5070386;28;20452;-78
2024/02/25 03:17:34;;;;;;;2.53;1.83;;;5.40;99.90;;;;;;5076971;28;20474;-79
2024/02/25 03:20:03;;;;;;;1.50;1.40;;;5.30;99.90;;;;;;5072111;28;20506;-82
2024/02/25 03:22:31;;;;;;;1.70;1.60;;;5.20;99.90;;;;;;5074500;28;20885;-82
2024/02/25 03:24:59;;;;;;;1.60;1.50;;;5.30;99.90;;;;;;5076958;28;20466;-81
2024/02/25 03:27:27;;;;;;;1.83;1.73;;;5.50;99.90;;;;;;5077371;28;20432;-82
2024/02/25 03:29:55;;;;;;;1.47;1.40;;;5.50;99.90;;;;;;5069716;28;20528;-82
2024/02/25 03:32:25;;;;;;;1.50;1.40;;;5.50;99.90;;;;;;5065651;28;20465;-79
2024/02/25 03:34:53;;;;;;;4.53;1.80;;;5.60;99.90;;;;;;5065968;28;20527;-80
2024/02/25 03:37:22;;;;;;;3.47;2.20;;;5.70;99.90;;;;;;5065999;28;20538;-81
2024/02/25 03:39:50;;;;;;;1.73;1.60;;;5.60;99.90;;;;;;5065892;28;20475;-80
2024/02/25 03:42:18;;;;;;;1.60;1.50;;;5.60;99.90;;;;;;5065660;28;21195;-80
2024/02/25 03:44:46;;;;;;;2.17;1.50;;;5.60;99.90;;;;;;5067017;28;20447;-80
2024/02/25 03:47:14;;;;;;;1.87;1.77;;;5.50;99.90;;;;;;5067027;28;21227;-81
2024/02/25 03:49:43;;;;;;;1.83;1.73;;;5.70;99.90;;;;;;5064514;28;20456;-80
2024/02/25 03:52:11;;;;;;;1.60;1.50;;;5.60;99.90;;;;;;5062695;28;20456;-79
2024/02/25 03:54:40;;;;;;;1.90;1.80;;;5.50;99.90;;;;;;5062366;28;20439;-80
2024/02/25 03:57:08;;;;;;;1.67;1.57;;;5.60;99.90;;;;;;5066444;28;20466;-80
2024/02/25 03:59:36;;;;;;;1.63;1.53;;;5.60;99.90;;;;;;5068248;28;20469;-81
2024/02/25 04:02:04;;;;;;;1.90;1.80;;;5.60;99.90;;;;;;5068670;28;20510;-79
2024/02/25 04:04:33;;;;;;;1.63;1.53;;;5.60;99.90;;;;;;5069337;28;20443;-80
2024/02/25 04:07:02;;;;;;;2.10;1.70;;;5.70;99.90;;;;;;5066948;28;20452;-81
2024/02/25 04:09:30;;;;;;;2.20;1.80;;;5.80;99.90;;;;;;5067956;28;20447;-82
2024/02/25 04:12:00;;;;;;;2.07;1.97;;;5.70;99.90;;;;;;5068820;28;20449;-81
2024/02/25 04:14:30;;;;;;;2.27;2.00;;;5.70;99.90;;;;;;5065452;28;20440;-82
2024/02/25 04:16:59;;;;;;;1.73;1.63;;;5.80;99.90;;;;;;5066209;28;20462;-81
2024/02/25 04:19:27;;;;;;;2.47;1.60;;;5.70;99.90;;;;;;5067915;28;20794;-81
2024/02/25 04:21:55;;;;;;;2.20;2.00;;;5.50;99.90;;;;;;5066471;28;20443;-80
2024/02/25 04:24:24;;;;;;;3.47;1.70;;;5.60;99.90;;;;;;5065999;28;21041;-80
2024/02/25 04:26:53;;;;;;;2.00;1.90;;;5.50;99.90;;;;;;5068258;28;20567;-81
2024/02/25 04:29:21;;;;;;;1.97;1.70;;;5.40;99.90;;;;;;5068956;28;21167;-82
2024/02/25 04:31:49;;;;;;;2.13;2.00;;;5.60;99.90;;;;;;5068861;28;20443;-81
2024/02/25 04:34:17;;;;;;;2.47;1.60;;;5.70;99.90;;;;;;5069786;28;20557;-82
2024/02/25 04:36:48;;;;;;;2.63;1.93;;;5.70;99.90;;;;;;5068916;28;20442;-82
2024/02/25 04:39:16;;;;;;;2.37;2.17;;;5.60;99.90;;;;;;5067771;28;20471;-80
2024/02/25 04:41:46;;;;;;;2.27;2.03;;;5.70;99.90;;;;;;5066772;28;20461;-79
2024/02/25 04:44:14;;;;;;;1.67;1.57;;;5.60;99.90;;;;;;5066899;28;21016;-81
2024/02/25 04:46:42;;;;;;;2.73;1.60;;;5.60;99.90;;;;;;5067418;28;20449;-80
2024/02/25 04:49:11;;;;;;;2.40;2.20;;;5.70;99.90;;;;;;5068272;28;20459;-80
2024/02/25 04:51:40;;;;;;;2.40;2.20;;;5.70;99.90;;;;;;5072142;28;20466;-80
2024/02/25 04:54:09;;;;;;;3.77;1.70;;;5.70;99.90;;;;;;5069411;28;20510;-81
2024/02/25 04:56:40;;;;;;;2.10;2.00;;;5.70;99.90;;;;;;5067650;28;20835;-81
2024/02/25 04:59:09;;;;;;;1.90;1.73;;;5.50;99.90;;;;;;5064619;28;20993;-81
2024/02/25 05:01:44;;;;;;;2.07;1.93;;;5.40;99.90;;;;;;5067737;28;20478;-80
2024/02/25 05:04:12;;;;;;;1.80;1.70;;;5.50;99.90;;;;;;5064225;28;20469;-81
2024/02/25 05:06:41;;;;;;;2.50;2.30;;;5.60;99.90;;;;;;5068769;28;20470;-79
2024/02/25 05:09:10;;;;;;;1.60;1.50;;;5.50;99.90;;;;;;5066261;28;20454;-80
2024/02/25 05:11:38;;;;;;;2.23;1.70;;;5.50;99.90;;;;;;5060502;28;20459;-80
2024/02/25 05:14:06;;;;;;;1.90;1.80;;;5.60;99.90;;;;;;5063722;28;20466;-79
2024/02/25 05:16:36;;;;;;;4.00;2.50;;;5.80;99.90;;;;;;5065630;28;20557;-79
2024/02/25 05:19:05;;;;;;;2.03;1.93;;;5.70;99.90;;;;;;5065622;28;20462;-81
2024/02/25 05:21:33;;;;;;;1.90;1.80;;;5.70;99.90;;;;;;5062384;28;21144;-78
2024/02/25 05:24:01;;;;;;;1.73;1.60;;;5.60;99.90;;;;;;5065919;28;20486;-79
2024/02/25 05:26:29;;;;;;;1.67;1.57;;;5.70;99.90;;;;;;5063285;28;20450;-80
2024/02/25 05:28:57;;;;;;;1.80;1.70;;;5.60;99.90;;;;;;5064156;28;20561;-81
2024/02/25 05:31:26;;;;;;;1.50;1.40;;;5.70;99.90;;;;;;5063751;28;20508;-80
2024/02/25 05:33:56;;;;;;;3.17;1.60;;;5.60;99.90;;;;;;5070622;28;21114;-80
2024/02/25 05:36:24;;;;;;;1.93;1.80;;;5.50;99.90;;;;;;5069443;28;20526;-79
2024/02/25 05:38:53;;;;;;;1.60;1.50;;;5.50;99.90;;;;;;5069698;28;20719;-79
2024/02/25 05:41:21;;;;;;;1.80;1.60;;;5.50;99.90;;;;;;5070966;28;20455;-81
2024/02/25 05:43:49;;;;;;;1.77;1.67;;;5.40;99.90;;;;;;5070659;28;20474;-81
2024/02/25 05:46:17;;;;;;;1.90;1.80;;;5.30;99.90;;;;;;5071279;28;20459;-81
2024/02/25 05:48:45;;;;;;;2.03;1.90;;;5.30;99.90;;;;;;5066514;28;20474;-80
2024/02/25 05:51:15;;;;;;;1.90;1.80;;;5.30;99.90;;;;;;5068221;28;20451;-80
2024/02/25 05:53:43;;;;;;;2.10;2.00;;;5.30;99.90;;;;;;5070301;28;20466;-80
2024/02/25 05:56:11;;;;;;;2.97;1.50;;;5.20;99.90;;;;;;5068797;28;20483;-79
2024/02/25 05:58:40;;;;;;;1.63;1.53;;;5.20;99.90;;;;;;5073030;28;20482;-79
2024/02/25 06:01:08;;;;;;;3.20;1.70;;;5.20;99.90;;;;;;5070927;28;20466;-80
2024/02/25 06:03:37;;;;;;;1.97;1.60;;;4.90;99.90;;;;;;5074095;28;21021;-81
2024/02/25 06:06:05;;;;;;;1.83;1.73;;;4.90;99.90;;;;;;5090958;28;20483;-80
2024/02/25 06:08:35;;;;;;;1.87;1.67;;;4.90;99.90;;;;;;5075076;28;20461;-80
2024/02/25 06:11:04;;;;;;;2.00;1.90;;;4.80;99.90;;;;;;5075759;28;21161;-79
2024/02/25 06:13:32;;;;;;;1.85;1.75;;;4.60;99.90;;;;;;5076513;28;20470;-81
2024/02/25 06:16:00;;;;;;;2.07;1.97;;;4.60;99.90;;;;;;5074355;28;20220;-82
2024/02/25 06:18:28;;;;;;;1.80;1.60;;;4.60;99.90;;;;;;5074040;28;20496;-80
2024/02/25 06:20:57;;;;;;;2.77;1.70;;;4.60;99.90;;;;;;5073251;28;20824;-81
2024/02/25 06:23:25;;;;;;;1.80;1.63;;;4.60;99.90;;;;;;5073549;28;20493;-81
2024/02/25 06:25:57;;;;;;;1.93;1.70;;;4.70;99.90;;;;;;5074095;28;20439;-81
2024/02/25 06:28:26;;;;;;;2.07;1.97;;;4.60;99.90;;;;;;5071883;28;20439;-80
2024/02/25 06:30:55;;;;;;;1.90;1.80;;;4.60;99.90;;;;;;5069873;28;20459;-81
2024/02/25 06:33:23;;;;;;;2.10;2.00;;;4.50;99.90;;;;;;5071012;28;20501;-80
2024/02/25 06:35:53;;;;;;;2.23;2.13;;;4.60;99.90;;;;;;5069755;28;20458;-82
2024/02/25 06:38:21;;;;;;;2.23;2.13;;;4.60;99.90;;;;;;5072461;28;20475;-81
2024/02/25 06:40:49;;;;;;;2.47;2.27;;;4.60;99.90;;;;;;5072312;28;20450;-80
2024/02/25 06:43:19;;;;;;;2.40;2.30;;;4.60;99.90;;;;;;5083139;28;20498;-82
2024/02/25 06:45:47;;;;;;;2.30;2.20;;;4.40;99.90;;;;;;5082121;28;20504;-82
2024/02/25 06:48:15;;;;;;;2.10;2.00;;;4.30;99.90;;;;;;5075811;28;20475;-81
2024/02/25 06:50:44;;;;;;;1.80;1.70;;;4.30;99.90;;;;;;5076838;28;20468;-79
2024/02/25 06:53:12;;;;;;;2.10;1.93;;;4.30;99.90;;;;;;5077103;28;20463;-80
2024/02/25 06:55:40;;;;;;;2.13;1.92;;;4.40;99.90;;;;;;5073627;28;20435;-78
2024/02/25 06:58:08;;;;;;;3.73;1.77;;;4.60;99.90;;;;;;5062716;28;20205;-79
2024/02/25 07:00:38;;;;;;;1.70;1.60;;;4.70;99.90;;;;;;5066863;28;20600;-79
2024/02/25 07:03:06;;;;;;;2.57;2.37;;;4.80;99.90;;;;;;5066521;28;20470;-79
2024/02/25 07:05:34;;;;;;;3.67;2.30;;;4.90;99.90;;;;;;5067730;28;20442;-78
2024/02/25 07:08:03;;;;;;;2.90;2.70;;;4.90;99.90;;;;;;5064952;28;20461;-78
2024/02/25 07:10:31;;;;;;;5.33;4.70;;;4.90;99.90;;;;;;5066825;28;20203;-79
2024/02/25 07:12:59;;;;;;;2.83;2.63;;;5.00;99.90;;;;;;5070445;28;21090;-80
2024/02/25 07:15:29;;;;;;;1.90;1.80;;;5.30;99.90;;;;;;5072905;28;20469;-80
2024/02/25 07:17:58;;;;;;;2.30;2.00;;;5.40;99.90;;;;;;5072716;28;20455;-81
2024/02/25 07:20:27;;;;;;;2.00;1.90;;;5.50;99.90;;;;;;5062497;28;20557;-80
2024/02/25 07:22:55;;;;;;;2.50;2.10;;;5.60;99.90;;;;;;5069596;28;20486;-80
2024/02/25 07:25:23;;;;;;;2.17;2.07;;;5.50;99.90;;;;;;5064277;28;20447;-78
2024/02/25 07:27:51;;;;;;;2.20;2.10;;;5.60;99.90;;;;;;5063987;28;20455;-79
2024/02/25 07:30:20;;;;;;;2.23;2.03;;;5.70;99.90;;;;;;5066787;28;20556;-80
2024/02/25 07:32:48;;;;;;;2.20;2.10;;;5.70;99.90;;;;;;5063379;28;20474;-79
2024/02/25 07:35:17;;;;;;;2.33;2.13;;;5.80;99.90;;;;;;5063192;28;20430;-80
2024/02/25 07:37:49;;;;;;;1.77;1.67;;;5.90;99.90;;;;;;5066331;28;20986;-77
2024/02/25 07:40:17;;;;;;;1.50;1.40;;;6.00;99.90;;;;;;5057878;28;20562;-78
2024/02/25 07:42:45;;;;;;;1.70;1.60;;;5.90;99.90;;;;;;5067353;28;20532;-76
2024/02/25 07:45:13;;;;;;;2.30;2.10;;;6.00;99.90;;;;;;5075246;28;20961;-78
2024/02/25 07:47:42;;;;;;;2.00;1.90;;;6.10;99.90;;;;;;5063819;28;20559;-78
2024/02/25 07:50:11;;;;;;;2.20;2.10;;;6.10;99.90;;;;;;5072050;28;20454;-79
2024/02/25 07:52:40;;;;;;;2.30;2.10;;;6.10;99.90;;;;;;5064786;28;20471;-78
2024/02/25 07:55:09;;;;;;;2.00;1.90;;;6.10;99.90;;;;;;5064239;28;20474;-79
2024/02/25 07:57:38;;;;;;;1.93;1.80;;;6.30;99.90;;;;;;5061421;28;20448;-78
2024/02/25 08:00:07;;;;;;;2.53;1.80;;;6.20;99.90;;;;;;5065347;28;20470;-76
2024/02/25 08:02:36;;;;;;;3.60;2.73;;;6.20;99.90;;;;;;5066556;28;20471;-79
2024/02/25 08:05:08;;;;;;;3.27;2.10;;;6.30;99.90;;;;;;5063320;28;20461;-78
2024/02/25 08:07:36;;;;;;;2.90;1.97;;;6.30;99.90;;;;;;5064189;28;20444;-78
2024/02/25 08:10:06;;;;;;;1.83;1.40;;;6.40;99.90;;;;;;5066074;28;20448;-78
2024/02/25 08:12:35;;;;;;;1.80;1.70;;;6.50;99.90;;;;;;5066538;28;20486;-77
2024/02/25 08:15:03;;;;;;;1.90;1.80;;;6.70;99.90;;;;;;5065040;28;20524;-80
2024/02/25 08:17:32;;;;;;;2.07;1.80;;;6.70;99.90;;;;;;5065917;28;20451;-80
2024/02/25 08:20:00;;;;;;;1.93;1.83;;;6.70;99.90;;;;;;5067190;28;20507;-77
2024/02/25 08:22:28;;;;;;;1.77;1.67;;;6.70;99.90;;;;;;5064696;28;20571;-78
2024/02/25 08:24:56;;;;;;;2.00;1.90;;;6.60;99.90;;;;;;5066519;28;20460;-79
2024/02/25 08:27:29;;;;;;;1.97;1.83;;;6.70;99.90;;;;;;5067097;28;20803;-78
2024/02/25 08:29:57;;;;;;;3.30;2.23;;;6.70;99.90;;;;;;5064286;28;20459;-79
2024/02/25 08:32:25;;;;;;;1.90;1.80;;;6.70;99.90;;;;;;5065155;28;20461;-77
2024/02/25 08:34:54;;;;;;;2.00;1.90;;;6.80;99.90;;;;;;5067462;28;20441;-78
2024/02/25 08:37:23;;;;;;;1.97;1.87;;;6.80;99.90;;;;;;5065411;28;20568;-78
2024/02/25 08:39:52;;;;;;;1.70;1.60;;;6.80;99.90;;;;;;5067312;28;20472;-79
2024/02/25 08:42:21;;;;;;;2.03;1.90;;;6.70;99.90;;;;;;5064329;28;20478;-78
2024/02/25 08:44:51;;;;;;;1.87;1.77;;;6.70;99.90;;;;;;5065897;28;21313;-80
2024/02/25 08:47:19;;;;;;;1.80;1.70;;;6.70;99.90;;;;;;5064784;28;20454;-77
2024/02/25 08:49:47;;;;;;;1.60;1.50;;;6.90;99.90;;;;;;5063911;28;20505;-78
2024/02/25 08:52:16;;;;;;;1.90;1.70;;;7.00;99.90;;;;;;5064901;28;20524;-77
2024/02/25 08:54:44;;;;;;;2.00;1.90;;;7.10;99.90;;;;;;5060839;28;20455;-77
2024/02/25 08:57:12;;;;;;;1.83;1.73;;;7.10;99.90;;;;;;5064003;28;20611;-78
2024/02/25 08:59:41;;;;;;;1.87;1.77;;;7.00;99.90;;;;;;5066567;28;20463;-79
2024/02/25 09:02:10;;;;;;;1.77;1.67;;;7.00;99.90;;;;;;5064580;28;20484;-79
2024/02/25 09:04:39;;;;;;;2.00;1.47;;;7.10;99.90;;;;;;5065138;28;20461;-77
2024/02/25 09:07:07;;;;;;;2.20;1.70;;;7.10;99.90;;;;;;5068980;28;20451;-80
2024/02/25 09:09:35;;;;;;;4.00;2.00;;;7.40;99.90;;;;;;5069163;28;20462;-79
2024/02/25 09:12:04;;;;;;;1.70;1.60;;;7.50;99.90;;;;;;5068359;28;20958;-79
2024/02/25 09:14:33;;;;;;;2.60;2.10;;;7.70;99.90;;;;;;5065333;28;20456;-78
2024/02/25 09:17:01;;;;;;;1.63;1.53;;;8.10;99.90;;;;;;5066701;28;20453;-78
2024/02/25 09:19:31;;;;;;;1.98;1.80;;;8.60;99.90;;;;;;5065772;28;20398;-80
2024/02/25 09:21:59;;;;;;;1.40;1.40;;;10.00;99.90;;;;;;5066861;28;20196;-80
2024/02/25 09:24:27;;;;;;;1.53;1.50;;;10.20;99.90;;;;;;5067807;28;20459;-79
2024/02/25 09:26:56;;;;;;;1.90;1.80;;;11.20;99.90;;;;;;5065678;28;20486;-80
2024/02/25 09:29:24;;;;;;;1.80;1.70;;;10.90;99.90;;;;;;5070855;28;20512;-81
2024/02/25 09:31:56;;;;;;;1.40;1.40;;;10.80;99.90;;;;;;5070084;28;21193;-79
2024/02/25 09:34:24;;;;;;;1.70;1.60;;;11.30;99.90;;;;;;5060844;28;20619;-78
2024/02/25 09:36:54;;;;;;;1.60;1.50;;;12.10;99.90;;;;;;5061109;28;20468;-79
2024/02/25 09:39:22;;;;;;;1.60;1.50;;;11.90;99.90;;;;;;5066968;28;21044;-80
2024/02/25 09:41:52;;;;;;;1.90;1.70;;;11.30;99.90;;;;;;5070101;28;20509;-80
2024/02/25 09:44:24;;;;;;;1.70;1.60;;;11.20;99.90;;;;;;5068023;28;20466;-78
2024/02/25 09:46:53;;;;;;;1.60;1.50;;;11.00;99.90;;;;;;5066480;28;20443;-79
2024/02/25 09:49:23;;;;;;;1.67;1.57;;;11.90;99.90;;;;;;5068305;28;21343;-76
2024/02/25 09:51:54;;;;;;;2.00;1.30;;;13.30;99.90;;;;;;5066933;28;20451;-78
2024/02/25 09:54:24;;;;;;;1.53;1.50;;;14.50;99.90;;;;;;5066858;28;20465;-79
2024/02/25 09:56:52;;;;;;;1.60;1.50;;;14.70;99.90;;;;;;5067193;28;20473;-80
2024/02/25 09:59:21;;;;;;;1.60;1.50;;;15.40;99.90;;;;;;5068988;28;21067;-78
2024/02/25 10:01:49;;;;;;;1.57;1.47;;;16.00;99.90;;;;;;5067377;28;20525;-79
2024/02/25 10:04:18;;;;;;;1.20;1.20;;;16.50;99.90;;;;;;5066543;28;20538;-78
2024/02/25 10:06:48;;;;;;;1.37;1.23;;;16.10;99.90;;;;;;5065669;28;20454;-78
2024/02/25 10:09:28;;;;;;;1.20;1.20;;;15.80;99.90;;;;;;5066947;28;20866;-79
2024/02/25 10:11:57;;;;;;;2.03;1.73;;;15.50;97.30;;;;;;5066284;28;20475;-80
2024/02/25 10:14:26;;;;;;;1.23;1.13;;;15.30;96.50;;;;;;5060688;28;20487;-78
2024/02/25 10:17:02;;;;;;;1.53;1.20;;;15.70;98.90;;;;;;5066790;28;20453;-78
2024/02/25 10:19:31;;;;;;;1.10;1.10;;;15.90;98.60;;;;;;5067139;28;20444;-78
2024/02/25 10:22:06;;;;;;;1.30;1.20;;;16.30;99.60;;;;;;5066620;28;20487;-78
2024/02/25 10:24:36;;;;;;;1.40;0.90;;;17.30;99.90;;;;;;5069578;28;20445;-76
2024/02/25 10:27:08;;;;;;;0.90;0.90;;;17.50;99.90;;;;;;5066651;28;20499;-78
2024/02/25 10:29:53;;;;;;;0.93;0.93;;;18.30;99.90;;;;;;5068587;28;20525;-79
2024/02/25 10:32:26;;;;;;;1.00;1.00;;;18.50;99.90;;;;;;5062167;28;20482;-76
2024/02/25 10:34:55;;;;;;;1.10;1.00;;;18.40;99.90;;;;;;5068663;28;21153;-78
2024/02/25 10:37:25;;;;;;;1.00;1.00;;;19.00;99.90;;;;;;5071127;28;20442;-79
2024/02/25 10:39:55;;;;;;;1.07;1.07;;;20.00;99.90;;;;;;5067575;28;20519;-79
2024/02/25 10:42:25;;;;;;;1.30;1.20;;;21.00;99.90;;;;;;5067053;28;20471;-75
2024/02/25 10:44:55;;;;;;;2.20;1.40;;;21.90;99.90;;;;;;5069467;28;20442;-77
2024/02/25 10:47:25;;;;;;;0.90;0.90;;;23.70;99.90;;;;;;5068436;28;20540;-77
2024/02/25 10:49:55;;;;;;;1.60;1.07;;;25.10;99.90;;;;;;5066764;28;20466;-78
2024/02/25 10:52:26;;;;;;;1.00;0.90;;;26.10;99.90;;;;;;5069256;28;20450;-78
2024/02/25 10:54:58;;;;;;;1.20;1.10;;;26.10;99.90;;;;;;5067226;28;20476;-77
2024/02/25 10:57:27;;;;;;;1.30;1.20;;;26.00;99.90;;;;;;5069743;28;20450;-77
2024/02/25 10:59:57;;;;;;;1.20;1.20;;;24.90;99.90;;;;;;5068056;28;20449;-76
2024/02/25 11:02:28;;;;;;;1.10;1.10;;;25.40;99.90;;;;;;5064681;28;20470;-78
2024/02/25 11:04:58;;;;;;;1.10;1.10;;;25.30;99.90;;;;;;5067065;28;20518;-80
2024/02/25 11:07:27;;;;;;;1.30;1.20;;;24.70;99.90;;;;;;5068543;28;20541;-78
2024/02/25 11:09:56;;;;;;;2.30;2.10;;;25.70;99.90;;;;;;5063427;28;20539;-79
2024/02/25 11:12:27;;;;;;;1.40;1.30;;;26.20;99.90;;;;;;5065567;28;20450;-78
2024/02/25 11:15:02;;;;;;;1.23;1.20;;;27.90;99.90;;;;;;5066383;28;20451;-79
2024/02/25 11:17:36;;;;;;;1.10;1.10;;;28.30;99.90;;;;;;5068065;28;20482;-79
2024/02/25 11:20:07;;;;;;;1.00;1.00;;;28.90;99.90;;;;;;5061871;28;20463;-80
2024/02/25 11:22:43;;;;;;;1.40;1.30;;;29.20;99.90;;;;;;5067150;28;20446;-80
2024/02/25 11:25:40;;;;;;;1.33;1.23;;;28.40;99.90;;;;;;5069591;28;20717;-81
2024/02/25 11:28:12;;;;;;;1.17;1.17;;;28.50;99.90;;;;;;5068535;28;20534;-81
2024/02/25 11:30:43;;;;;;;1.30;1.20;;;29.40;99.90;;;;;;5065873;28;20458;-82
2024/02/25 11:33:37;;;;;;;1.27;1.17;;;25.80;99.90;;;;;;5067218;28;20843;-79
2024/02/25 11:36:11;;;;;;;1.40;1.30;;;22.40;99.90;;;;;;5066706;28;20470;-79
2024/02/25 11:38:41;;;;;;;1.57;1.10;;;21.50;96.30;;;;;;5066941;28;20458;-79
2024/02/25 11:41:12;;;;;;;1.30;1.20;;;22.40;99.90;;;;;;5069583;28;20870;-80
2024/02/25 11:43:40;;;;;;;1.43;1.33;;;20.20;84.20;;;;;;5067722;28;20554;-80
2024/02/25 11:46:09;;;;;;;1.10;1.10;;;18.80;62.90;;;;;;5068765;28;20523;-80
2024/02/25 11:48:37;;;;;;;1.63;1.53;;;17.60;48.40;;;;;;5066876;28;20783;-79
2024/02/25 11:51:06;;;;;;;1.20;1.20;;;17.00;42.50;;;;;;5067400;28;20800;-81
2024/02/25 11:53:35;;;;;;;1.30;1.20;;;16.70;53.50;;;;;;5067648;28;20482;-80
2024/02/25 11:56:04;;;;;;;1.47;1.30;;;16.30;35.20;;;;;;5066745;28;20463;-76
2024/02/25 11:58:33;;;;;;;1.40;1.30;;;16.10;33.70;;;;;;5065111;28;20484;-77
2024/02/25 12:01:02;;;;;;;1.40;1.30;;;16.00;34.00;;;;;;5065628;28;20492;-79
2024/02/25 12:03:31;;;;;;;1.23;1.20;;;15.10;24.70;;;;;;5059164;28;20486;-78
2024/02/25 12:06:01;;;;;;;1.17;1.17;;;15.10;24.50;;;;;;5067034;28;20455;-79
2024/02/25 12:08:31;;;;;;;2.90;1.10;;;15.10;24.00;;;;;;5067462;28;20458;-82
2024/02/25 12:11:00;;;;;;;1.10;1.10;;;15.10;23.80;;;;;;5066208;28;20698;-80
2024/02/25 12:13:29;;;;;;;1.03;1.03;;;15.10;23.30;;;;;;5065552;28;21095;-78
2024/02/25 12:15:59;;;;;;;1.00;1.00;;;15.10;23.40;;;;;;5062161;28;20446;-77
2024/02/25 12:18:27;;;;;;;1.10;1.10;;;15.10;24.40;;;;;;5065163;28;20464;-79
2024/02/25 12:20:57;;;;;;;1.10;1.00;;;15.10;25.30;;;;;;5065488;28;20454;-80
2024/02/25 12:23:25;;;;;;;1.00;1.00;;;15.10;25.40;;;;;;5065503;28;20482;-79
2024/02/25 12:26:02;;;;;;;1.17;1.07;;;15.00;23.20;;;;;;5061517;28;20928;-79
2024/02/25 12:28:37;;;;;;;1.17;0.90;;;14.90;22.70;;;;;;5064332;28;20839;-80
2024/02/25 12:31:09;;;;;;;1.00;1.00;;;14.80;21.60;;;;;;5064085;28;20503;-77
2024/02/25 12:33:37;;;;;;;1.10;1.00;;;14.40;17.60;;;;;;5062930;28;21046;-78
2024/02/25 12:36:06;;;;;;;1.00;1.00;;;14.20;16.50;;;;;;5059002;28;21003;-79
2024/02/25 12:38:35;;;;;;;0.90;0.90;;;14.50;19.50;;;;;;5064539;28;20444;-78
2024/02/25 12:41:04;;;;;;;1.10;1.10;;;14.40;17.90;;;;;;5061897;28;20487;-78
2024/02/25 12:43:32;;;;;;;0.90;0.90;;;14.30;16.60;;;;;;5063580;28;20481;-77
2024/02/25 12:46:00;;;;;;;1.10;1.10;;;14.20;16.10;;;;;;5062511;28;20463;-78
2024/02/25 12:48:31;;;;;;;1.20;1.10;;;14.10;15.90;;;;;;5063843;28;20501;-78
2024/02/25 12:51:01;;;;;;;1.00;1.00;;;14.10;15.60;;;;;;5078694;28;20886;-81
2024/02/25 12:53:30;;;;;;;1.10;1.10;;;14.00;15.60;;;;;;5065162;28;20471;-79
2024/02/25 12:55:59;;;;;;;0.90;0.90;;;14.20;17.60;;;;;;5068221;28;20458;-80
2024/02/25 12:58:27;;;;;;;1.00;1.00;;;14.30;17.90;;;;;;5065943;28;20775;-80
2024/02/25 13:00:56;;;;;;;0.90;0.90;;;14.50;18.90;;;;;;5064824;28;20529;-80
2024/02/25 13:03:24;;;;;;;0.83;0.83;;;13.90;12.30;;;;;;5058985;28;20524;-79
2024/02/25 13:05:54;;;;;;;1.20;1.20;;;13.80;11.90;;;;;;5063886;28;20477;-80